Time;durP1;ratioP1;P1;durP2;ratioP2;P2;SDS_P1;SDS_P2;PMS_P1;PMS_P2;Temp;Humidity;BMP_temperature;BMP_pressure;BME280_temperature;BME280_humidity;BME280_pressure;Samples;Min_cycle;Max_cycle;Signal;HPM_P1;HPM_P2
2023/12/25 00:02:06;;;;;;;1.20;0.93;;;;;;;11.40;69.96;99636.09;5002208;28;98480;-55
2023/12/25 00:04:32;;;;;;;1.57;1.00;;;;;;;11.35;69.94;99645.31;4999146;28;97254;-56
2023/12/25 00:06:57;;;;;;;4.30;1.00;;;;;;;11.35;70.16;99637.00;4997159;28;96918;-55
2023/12/25 00:09:22;;;;;;;1.23;1.00;;;;;;;11.40;69.96;99618.75;5001496;28;97858;-55
2023/12/25 00:11:48;;;;;;;2.87;1.00;;;;;;;11.42;69.95;99630.75;4997545;28;97060;-56
2023/12/25 00:14:13;;;;;;;1.00;0.90;;;;;;;11.45;69.99;99640.75;5002741;28;97204;-55
2023/12/25 00:16:40;;;;;;;3.77;1.10;;;;;;;11.50;69.89;99645.38;4999787;28;96785;-55
2023/12/25 00:19:06;;;;;;;3.87;1.20;;;;;;;11.54;69.80;99647.81;5000547;28;97943;-55
2023/12/25 00:21:32;;;;;;;2.83;1.10;;;;;;;11.58;69.85;99642.66;4996523;28;97573;-55
2023/12/25 00:23:57;;;;;;;3.00;0.80;;;;;;;11.61;69.90;99626.97;4997758;28;98580;-55
2023/12/25 00:26:22;;;;;;;5.00;1.20;;;;;;;11.64;69.92;99634.91;4999752;28;97055;-55
2023/12/25 00:28:48;;;;;;;2.67;1.20;;;;;;;11.64;69.55;99637.69;5001644;28;96775;-55
2023/12/25 00:31:13;;;;;;;8.57;1.53;;;;;;;11.62;69.83;99650.59;4997808;28;98010;-55
2023/12/25 00:33:38;;;;;;;3.50;1.20;;;;;;;11.63;69.59;99654.88;4997501;28;98191;-55
2023/12/25 00:36:04;;;;;;;5.07;1.37;;;;;;;11.62;70.00;99645.81;4997398;28;97165;-57
2023/12/25 00:38:29;;;;;;;4.53;1.70;;;;;;;11.62;70.13;99645.06;5000904;28;96563;-57
2023/12/25 00:40:55;;;;;;;4.50;1.60;;;;;;;11.64;70.08;99650.78;4997498;28;98836;-55
2023/12/25 00:43:20;;;;;;;4.73;1.10;;;;;;;11.65;70.07;99658.56;4998989;28;97132;-56
2023/12/25 00:45:45;;;;;;;4.83;1.80;;;;;;;11.66;70.05;99648.97;4994876;28;96732;-56
2023/12/25 00:48:11;;;;;;;6.67;1.50;;;;;;;11.65;70.02;99650.25;4996961;28;96975;-55
2023/12/25 00:50:36;;;;;;;6.63;1.27;;;;;;;11.63;70.12;99647.31;4996741;28;97501;-55
2023/12/25 00:53:01;;;;;;;4.87;1.20;;;;;;;11.63;70.03;99638.25;4999338;28;97295;-55
2023/12/25 00:55:27;;;;;;;3.27;1.70;;;;;;;11.60;70.08;99631.78;5003163;28;97145;-56
2023/12/25 00:57:52;;;;;;;6.07;1.40;;;;;;;11.61;70.08;99644.34;4999098;28;96942;-56
2023/12/25 01:00:17;;;;;;;8.43;1.40;;;;;;;11.59;70.05;99621.25;4998938;28;102737;-55
2023/12/25 01:02:43;;;;;;;4.10;1.10;;;;;;;11.59;70.05;99624.75;4997027;28;97171;-55
2023/12/25 01:05:09;;;;;;;8.03;1.83;;;;;;;11.54;70.28;99639.50;4998111;28;96932;-57
2023/12/25 01:07:35;;;;;;;2.20;1.03;;;;;;;11.52;70.15;99644.84;4996308;28;97050;-56
2023/12/25 01:10:00;;;;;;;5.67;1.70;;;;;;;11.53;70.24;99626.94;4994632;28;97124;-56
2023/12/25 01:12:26;;;;;;;3.10;1.50;;;;;;;11.52;70.35;99628.22;4997360;28;96962;-56
2023/12/25 01:14:51;;;;;;;2.20;1.30;;;;;;;11.52;70.29;99637.28;4993539;28;96804;-56
2023/12/25 01:17:17;;;;;;;2.60;0.87;;;;;;;11.53;70.20;99643.53;4997551;28;97394;-56
2023/12/25 01:19:42;;;;;;;2.33;1.10;;;;;;;11.51;70.24;99640.59;4996720;28;97578;-55
2023/12/25 01:22:08;;;;;;;5.73;1.47;;;;;;;11.47;70.16;99646.50;4996646;28;97365;-56
2023/12/25 01:24:33;;;;;;;7.17;1.47;;;;;;;11.45;70.37;99649.06;4998619;28;96659;-56
2023/12/25 01:26:58;;;;;;;2.53;1.37;;;;;;;11.45;70.22;99667.72;4997401;28;96755;-56
2023/12/25 01:29:24;;;;;;;7.40;0.80;;;;;;;11.45;70.18;99659.41;4997227;28;100102;-56
2023/12/25 01:31:49;;;;;;;5.33;0.80;;;;;;;11.41;70.30;99673.59;4994238;28;98230;-55
2023/12/25 01:34:14;;;;;;;3.17;0.90;;;;;;;11.40;70.27;99676.91;4995681;28;96998;-56
2023/12/25 01:36:40;;;;;;;1.80;0.93;;;;;;;11.38;70.21;99665.63;4998882;28;96805;-56
2023/12/25 01:39:06;;;;;;;5.60;1.37;;;;;;;11.37;70.03;99669.69;4995807;28;99574;-56
2023/12/25 01:41:31;;;;;;;3.03;0.90;;;;;;;11.34;70.10;99676.31;4996862;28;97093;-56
2023/12/25 01:43:56;;;;;;;5.03;1.23;;;;;;;11.32;70.19;99671.34;4997292;28;97133;-55
2023/12/25 01:46:22;;;;;;;6.47;1.30;;;;;;;11.35;70.14;99656.38;4998222;28;97516;-55
2023/12/25 01:48:51;;;;;;;2.43;0.87;;;;;;;11.33;70.00;99678.34;4994432;28;97186;-56
2023/12/25 01:51:22;;;;;;;2.53;0.90;;;;;;;11.30;70.00;99676.69;4993993;28;97343;-55
2023/12/25 01:53:48;;;;;;;1.87;0.87;;;;;;;11.32;70.13;99692.75;4996748;28;97466;-56
2023/12/25 01:56:14;;;;;;;1.90;0.83;;;;;;;11.30;70.06;99692.53;4997067;28;97373;-55
2023/12/25 01:58:39;;;;;;;3.03;0.93;;;;;;;11.30;69.99;99718.22;4996616;28;97300;-55
2023/12/25 02:01:05;;;;;;;1.53;0.70;;;;;;;11.31;70.10;99689.22;4995652;28;98248;-56
2023/12/25 02:03:30;;;;;;;1.30;0.60;;;;;;;11.29;70.02;99688.28;4997012;28;99979;-56
2023/12/25 02:05:56;;;;;;;2.37;0.90;;;;;;;11.27;70.08;99691.59;4994523;28;97732;-55
2023/12/25 02:08:23;;;;;;;1.87;0.80;;;;;;;11.25;70.07;99702.47;4995032;28;97141;-56
2023/12/25 02:10:48;;;;;;;3.17;1.00;;;;;;;11.26;70.10;99703.97;4997114;28;97156;-56
2023/12/25 02:13:14;;;;;;;3.43;0.80;;;;;;;11.25;70.16;99701.75;4998122;28;97542;-56
2023/12/25 02:15:39;;;;;;;6.13;1.87;;;;;;;11.26;70.05;99701.22;4994145;28;102693;-56
2023/12/25 02:18:05;;;;;;;1.57;0.83;;;;;;;11.28;70.08;99708.97;5004260;28;97298;-56
2023/12/25 02:20:33;;;;;;;5.47;1.20;;;;;;;11.27;69.96;99710.25;4997072;28;97546;-56
2023/12/25 02:23:00;;;;;;;2.13;1.17;;;;;;;11.24;70.13;99700.25;4998032;28;96998;-56
2023/12/25 02:25:31;;;;;;;3.20;0.80;;;;;;;11.23;70.12;99712.63;4998220;28;97180;-56
2023/12/25 02:27:57;;;;;;;3.93;1.20;;;;;;;11.19;70.18;99726.06;4997069;28;97461;-56
2023/12/25 02:30:22;;;;;;;1.87;0.90;;;;;;;11.18;70.17;99717.00;4999994;28;97126;-58
2023/12/25 02:32:48;;;;;;;3.70;1.03;;;;;;;11.14;70.30;99716.63;4998007;28;97103;-56
2023/12/25 02:35:13;;;;;;;1.73;1.00;;;;;;;11.10;70.12;99719.00;4995128;28;96736;-56
2023/12/25 02:37:39;;;;;;;2.10;1.00;;;;;;;11.08;70.23;99732.63;4991304;28;96736;-56
2023/12/25 02:40:06;;;;;;;2.63;0.83;;;;;;;11.08;70.21;99731.88;4994214;28;97264;-56
2023/12/25 02:42:32;;;;;;;2.27;0.97;;;;;;;11.07;70.09;99731.13;5000208;28;96365;-56
2023/12/25 02:44:57;;;;;;;2.23;1.20;;;;;;;11.04;70.12;99723.94;4998233;28;97059;-56
2023/12/25 02:47:23;;;;;;;4.87;1.20;;;;;;;11.03;70.10;99727.22;4996354;28;100741;-56
2023/12/25 02:49:48;;;;;;;3.23;1.13;;;;;;;11.02;69.97;99739.59;4999870;28;97856;-56
2023/12/25 02:52:13;;;;;;;1.93;0.93;;;;;;;11.02;70.31;99734.81;5005730;28;97324;-56
2023/12/25 02:54:39;;;;;;;2.03;1.00;;;;;;;11.05;70.03;99728.16;5003743;28;99570;-57
2023/12/25 02:57:04;;;;;;;1.70;0.87;;;;;;;11.04;70.00;99739.78;5000796;28;97386;-56
2023/12/25 02:59:29;;;;;;;3.07;1.30;;;;;;;11.02;69.96;99737.56;5003190;28;96673;-56
2023/12/25 03:01:55;;;;;;;1.03;0.83;;;;;;;11.02;70.12;99739.59;4998927;28;97636;-56
2023/12/25 03:04:20;;;;;;;2.20;0.90;;;;;;;11.03;70.18;99743.84;5001139;28;97244;-56
2023/12/25 03:06:46;;;;;;;3.10;1.20;;;;;;;11.00;69.93;99728.31;5000524;28;97529;-55
2023/12/25 03:09:12;;;;;;;1.97;1.13;;;;;;;10.97;69.87;99723.88;5005620;28;99568;-55
2023/12/25 03:11:37;;;;;;;3.03;1.00;;;;;;;10.96;69.99;99723.13;5006524;28;96923;-56
2023/12/25 03:14:03;;;;;;;1.40;0.87;;;;;;;10.93;69.91;99726.97;5001223;28;97304;-56
2023/12/25 03:16:28;;;;;;;2.47;0.80;;;;;;;10.93;69.90;99721.44;5005652;28;97261;-56
2023/12/25 03:18:54;;;;;;;4.70;1.10;;;;;;;10.93;69.55;99731.78;5000734;28;99325;-56
2023/12/25 03:21:21;;;;;;;4.80;1.17;;;;;;;10.92;69.81;99727.50;4997458;28;97684;-56
2023/12/25 03:23:46;;;;;;;1.83;1.03;;;;;;;10.91;69.72;99726.03;5002220;28;96838;-56
2023/12/25 03:26:11;;;;;;;4.73;0.97;;;;;;;10.92;69.71;99744.09;4998796;28;97999;-56
2023/12/25 03:28:37;;;;;;;2.70;0.70;;;;;;;10.92;69.81;99736.56;4999564;28;98374;-57
2023/12/25 03:31:02;;;;;;;5.27;1.10;;;;;;;10.92;69.52;99739.31;4999613;28;96603;-56
2023/12/25 03:33:27;;;;;;;4.10;1.10;;;;;;;10.94;69.63;99736.75;5000125;28;97198;-56
2023/12/25 03:35:53;;;;;;;2.80;0.87;;;;;;;10.96;69.62;99733.47;4998735;28;108760;-56
2023/12/25 03:38:18;;;;;;;0.80;0.80;;;;;;;10.97;69.36;99735.69;5000626;28;97741;-56
2023/12/25 03:40:43;;;;;;;1.43;0.80;;;;;;;10.94;69.24;99738.81;4999811;28;97094;-56
2023/12/25 03:43:09;;;;;;;5.93;1.00;;;;;;;10.95;69.23;99734.72;4999494;28;97307;-57
2023/12/25 03:45:34;;;;;;;2.37;1.10;;;;;;;10.94;69.17;99747.09;4999469;28;97275;-56
2023/12/25 03:47:59;;;;;;;1.10;0.73;;;;;;;10.94;69.07;99747.81;4999777;28;108875;-56
2023/12/25 03:50:25;;;;;;;1.30;0.80;;;;;;;10.93;68.92;99762.97;5001204;28;97097;-56
2023/12/25 03:52:50;;;;;;;3.57;0.70;;;;;;;10.93;68.71;99764.97;4998083;28;96925;-56
2023/12/25 03:55:15;;;;;;;2.87;1.17;;;;;;;10.94;68.84;99774.78;5000389;28;97324;-56
2023/12/25 03:57:41;;;;;;;2.20;0.70;;;;;;;10.92;68.72;99778.06;4999592;28;98303;-56
2023/12/25 04:00:07;;;;;;;4.03;1.10;;;;;;;10.93;68.67;99771.25;5000301;28;96743;-57
2023/12/25 04:02:32;;;;;;;1.40;1.00;;;;;;;10.93;68.70;99781.56;4998389;28;96894;-57
2023/12/25 04:04:57;;;;;;;1.83;0.77;;;;;;;10.93;68.77;99781.56;5000700;28;109824;-56
2023/12/25 04:07:23;;;;;;;4.13;1.13;;;;;;;10.89;68.50;99781.94;4999657;28;97123;-56
2023/12/25 04:09:48;;;;;;;1.80;0.67;;;;;;;10.88;68.59;99783.19;4998890;28;96480;-56
2023/12/25 04:12:13;;;;;;;4.47;1.30;;;;;;;10.86;68.58;99779.47;5000634;28;96966;-56
2023/12/25 04:14:39;;;;;;;3.77;0.80;;;;;;;10.84;68.59;99774.50;5001397;28;97683;-56
2023/12/25 04:17:04;;;;;;;1.80;0.73;;;;;;;10.82;68.62;99799.19;4997230;28;96750;-56
2023/12/25 04:19:30;;;;;;;2.43;0.90;;;;;;;10.81;68.58;99792.16;4999412;28;97107;-56
2023/12/25 04:21:55;;;;;;;1.57;0.83;;;;;;;10.80;68.67;99807.28;4997444;28;97334;-56
2023/12/25 04:24:20;;;;;;;3.93;1.30;;;;;;;10.76;68.55;99807.56;5002025;28;97426;-56
2023/12/25 04:26:46;;;;;;;2.43;1.00;;;;;;;10.77;68.61;99802.78;5001255;28;97376;-56
2023/12/25 04:29:11;;;;;;;3.87;0.90;;;;;;;10.78;68.46;99809.81;5001673;28;96915;-56
2023/12/25 04:31:37;;;;;;;3.00;0.80;;;;;;;10.75;68.41;99813.66;4997532;28;97010;-56
2023/12/25 04:34:02;;;;;;;2.40;0.67;;;;;;;10.74;68.39;99803.88;4999885;28;96987;-56
2023/12/25 04:36:28;;;;;;;1.57;0.93;;;;;;;10.72;68.08;99807.16;4999645;28;97221;-56
2023/12/25 04:38:53;;;;;;;1.90;0.87;;;;;;;10.70;68.23;99814.53;4994750;28;98834;-56
2023/12/25 04:41:22;;;;;;;1.57;0.60;;;;;;;10.70;68.18;99820.81;4999013;28;97263;-56
2023/12/25 04:43:48;;;;;;;5.77;0.80;;;;;;;10.72;68.07;99803.66;4997342;28;98590;-56
2023/12/25 04:46:13;;;;;;;2.40;0.70;;;;;;;10.70;67.89;99787.59;4997807;28;96777;-56
2023/12/25 04:48:38;;;;;;;3.13;1.00;;;;;;;10.69;67.85;99774.31;4999838;28;96693;-56
2023/12/25 04:51:04;;;;;;;1.60;0.67;;;;;;;10.68;67.69;99781.88;4999914;28;96966;-56
2023/12/25 04:53:31;;;;;;;4.63;1.00;;;;;;;10.66;67.78;99786.44;4997431;28;97735;-56
2023/12/25 04:55:57;;;;;;;4.23;1.33;;;;;;;10.65;67.73;99793.28;4999994;28;100699;-56
2023/12/25 04:58:22;;;;;;;2.10;0.90;;;;;;;10.66;67.56;99797.50;5000830;28;96725;-57
2023/12/25 05:00:48;;;;;;;4.77;1.20;;;;;;;10.67;67.56;99801.78;4999053;28;97142;-56
2023/12/25 05:03:13;;;;;;;4.00;0.90;;;;;;;10.67;67.53;99812.84;5000638;28;97743;-57
2023/12/25 05:05:38;;;;;;;2.73;0.80;;;;;;;10.68;67.69;99806.75;4999922;28;97155;-56
2023/12/25 05:08:04;;;;;;;1.93;0.70;;;;;;;10.68;67.41;99814.31;4998284;28;97345;-55
2023/12/25 05:10:29;;;;;;;2.80;1.03;;;;;;;10.68;67.28;99822.63;5000987;28;96865;-56
2023/12/25 05:12:55;;;;;;;2.20;0.60;;;;;;;10.68;67.34;99822.63;4995864;28;97193;-56
2023/12/25 05:15:20;;;;;;;2.67;1.07;;;;;;;10.69;67.30;99829.66;5000409;28;97199;-56
2023/12/25 05:17:45;;;;;;;1.83;1.10;;;;;;;10.70;67.32;99831.88;4997312;28;96939;-55
2023/12/25 05:20:10;;;;;;;8.37;1.47;;;;;;;10.71;67.11;99827.84;4998972;28;97172;-56
2023/12/25 05:22:36;;;;;;;2.57;0.90;;;;;;;10.72;67.12;99823.78;4999959;28;99990;-56
2023/12/25 05:25:01;;;;;;;2.50;0.73;;;;;;;10.74;67.13;99826.03;4995263;28;97160;-56
2023/12/25 05:27:28;;;;;;;3.50;0.83;;;;;;;10.73;67.02;99828.03;4995527;28;97309;-56
2023/12/25 05:29:54;;;;;;;4.67;1.00;;;;;;;10.75;67.04;99838.56;4998468;28;96746;-56
2023/12/25 05:32:20;;;;;;;4.20;0.90;;;;;;;10.74;66.95;99846.09;4997336;28;97754;-56
2023/12/25 05:34:45;;;;;;;1.47;0.60;;;;;;;10.74;66.96;99843.34;4998447;28;97361;-56
2023/12/25 05:37:10;;;;;;;6.53;1.07;;;;;;;10.71;66.99;99838.91;4995388;28;97937;-56
2023/12/25 05:39:36;;;;;;;1.93;0.73;;;;;;;10.73;66.92;99830.06;4998267;28;97224;-56
2023/12/25 05:42:01;;;;;;;3.20;0.80;;;;;;;10.71;66.88;99833.38;4999063;28;106373;-55
2023/12/25 05:44:26;;;;;;;3.33;1.00;;;;;;;10.74;66.76;99831.56;4997334;28;97087;-55
2023/12/25 05:46:52;;;;;;;2.80;1.23;;;;;;;10.72;66.80;99842.38;4998056;28;96975;-56
2023/12/25 05:49:17;;;;;;;2.57;0.90;;;;;;;10.70;66.84;99834.63;4999659;28;97404;-55
2023/12/25 05:51:42;;;;;;;1.90;0.73;;;;;;;10.68;66.66;99831.66;4997131;28;106022;-56
2023/12/25 05:54:07;;;;;;;2.40;0.73;;;;;;;10.66;66.72;99836.25;4996124;28;112716;-55
2023/12/25 05:56:33;;;;;;;1.57;0.70;;;;;;;10.66;66.70;99841.78;5002160;28;97091;-56
2023/12/25 05:58:59;;;;;;;3.40;1.10;;;;;;;10.65;66.69;99859.66;4996756;28;96906;-55
2023/12/25 06:01:25;;;;;;;3.90;1.47;;;;;;;10.65;66.80;99859.66;4998309;28;97050;-55
2023/12/25 06:03:50;;;;;;;4.50;1.07;;;;;;;10.58;66.61;99863.81;4998750;28;97399;-56
2023/12/25 06:06:16;;;;;;;4.40;0.90;;;;;;;10.53;66.84;99859.16;4997212;28;97703;-56
2023/12/25 06:08:41;;;;;;;1.00;0.77;;;;;;;10.55;66.85;99872.44;4998211;28;96888;-55
2023/12/25 06:11:06;;;;;;;2.33;0.80;;;;;;;10.55;66.80;99894.56;4995198;28;98722;-55
2023/12/25 06:13:32;;;;;;;3.77;0.77;;;;;;;10.49;66.85;99888.41;4996659;28;97238;-56
2023/12/25 06:15:57;;;;;;;1.20;0.63;;;;;;;10.45;66.88;99891.50;4997143;28;96781;-56
2023/12/25 06:18:22;;;;;;;1.77;0.80;;;;;;;10.41;67.01;99901.41;4998007;28;96776;-55
2023/12/25 06:20:48;;;;;;;3.30;0.80;;;;;;;10.35;67.09;99909.78;4998271;28;110547;-56
2023/12/25 06:23:13;;;;;;;1.93;0.70;;;;;;;10.27;67.18;99908.19;4996761;28;106259;-56
2023/12/25 06:25:38;;;;;;;3.03;0.60;;;;;;;10.20;67.14;99901.28;4997389;28;96970;-56
2023/12/25 06:28:04;;;;;;;1.93;0.77;;;;;;;10.13;67.47;99906.72;4996109;28;97069;-56
2023/12/25 06:30:29;;;;;;;4.73;1.10;;;;;;;10.08;67.35;99899.28;4998833;28;98681;-56
2023/12/25 06:32:55;;;;;;;1.77;0.63;;;;;;;10.04;67.45;99907.91;4994766;28;97209;-55
2023/12/25 06:35:21;;;;;;;1.57;0.70;;;;;;;10.02;67.48;99905.63;4999085;28;96916;-55
2023/12/25 06:37:46;;;;;;;1.60;1.00;;;;;;;10.05;67.42;99923.19;4999453;28;97096;-56
2023/12/25 06:40:12;;;;;;;1.37;0.63;;;;;;;10.04;67.49;99924.47;4997417;28;97284;-56
2023/12/25 06:42:37;;;;;;;3.83;1.13;;;;;;;10.00;67.12;99930.31;5000009;28;97111;-56
2023/12/25 06:45:03;;;;;;;1.67;0.90;;;;;;;9.92;67.44;99915.63;4998249;28;97205;-56
2023/12/25 06:47:28;;;;;;;1.50;0.50;;;;;;;9.90;67.28;99932.00;4996200;28;96833;-55
2023/12/25 06:49:53;;;;;;;2.30;0.40;;;;;;;9.89;67.26;99924.97;4996085;28;109796;-56
2023/12/25 06:52:19;;;;;;;2.50;0.70;;;;;;;9.89;67.27;99930.50;4997125;28;98394;-55
2023/12/25 06:54:44;;;;;;;1.50;0.60;;;;;;;9.89;67.19;99935.28;4997379;28;96964;-56
2023/12/25 06:57:11;;;;;;;2.97;0.77;;;;;;;9.86;67.09;99936.34;4997066;28;97040;-55
2023/12/25 06:59:37;;;;;;;2.13;0.60;;;;;;;9.82;67.07;99949.72;4998913;28;97923;-55
2023/12/25 07:02:03;;;;;;;3.53;1.07;;;;;;;9.80;67.06;99928.13;4997134;28;97171;-56
2023/12/25 07:04:28;;;;;;;1.60;0.50;;;;;;;9.79;67.03;99950.78;4996327;28;96936;-56
2023/12/25 07:06:53;;;;;;;1.60;0.67;;;;;;;9.79;67.02;99962.56;4998614;28;96872;-55
2023/12/25 07:09:19;;;;;;;1.13;0.67;;;;;;;9.78;67.19;99961.06;4996492;28;97347;-56
2023/12/25 07:11:44;;;;;;;1.33;0.53;;;;;;;9.78;66.92;99961.06;4997518;28;97158;-56
2023/12/25 07:14:09;;;;;;;1.63;0.50;;;;;;;9.80;67.12;99964.06;4998771;28;97311;-55
2023/12/25 07:16:35;;;;;;;1.07;0.53;;;;;;;9.79;66.86;99973.63;4999319;28;97200;-55
2023/12/25 07:19:00;;;;;;;5.50;0.90;;;;;;;9.80;66.95;99972.34;4996502;28;97041;-55
2023/12/25 07:21:25;;;;;;;2.93;0.90;;;;;;;9.83;66.95;99981.59;4996933;28;105503;-56
2023/12/25 07:23:52;;;;;;;4.67;1.13;;;;;;;9.82;66.87;99983.59;4998076;28;97203;-55
2023/12/25 07:26:18;;;;;;;2.53;0.70;;;;;;;9.85;67.00;99981.81;4995341;28;97001;-56
2023/12/25 07:28:44;;;;;;;3.83;0.70;;;;;;;9.86;66.85;99989.59;4997716;28;98911;-56
2023/12/25 07:31:09;;;;;;;1.37;0.80;;;;;;;9.84;66.90;99980.34;4994616;28;98281;-55
2023/12/25 07:33:36;;;;;;;1.40;0.80;;;;;;;9.90;66.88;99994.78;4994041;28;97065;-55
2023/12/25 07:36:02;;;;;;;1.10;0.60;;;;;;;9.92;67.19;100000.53;4997091;28;96795;-55
2023/12/25 07:38:27;;;;;;;2.23;0.70;;;;;;;9.88;66.87;99998.09;4998757;28;97331;-55
2023/12/25 07:40:53;;;;;;;1.17;0.53;;;;;;;9.88;66.92;100003.63;4997087;28;97407;-56
2023/12/25 07:43:18;;;;;;;1.90;0.67;;;;;;;9.88;66.87;100000.84;4994930;28;97069;-55
2023/12/25 07:45:44;;;;;;;2.00;0.90;;;;;;;9.90;67.01;100012.13;4999166;28;97150;-55
2023/12/25 07:48:09;;;;;;;4.30;1.00;;;;;;;9.90;67.11;100009.34;4995474;28;97361;-55
2023/12/25 07:50:35;;;;;;;4.30;0.73;;;;;;;9.87;67.12;100012.41;4998231;28;102054;-55
2023/12/25 07:53:00;;;;;;;0.90;0.60;;;;;;;9.86;67.08;100011.69;4997452;28;96724;-55
2023/12/25 07:55:26;;;;;;;3.83;0.80;;;;;;;9.88;67.05;100003.63;4997243;28;97219;-55
2023/12/25 07:57:51;;;;;;;1.77;1.00;;;;;;;9.89;67.00;100018.91;4995559;28;98440;-56
2023/12/25 08:00:16;;;;;;;2.97;0.70;;;;;;;9.89;66.92;100020.91;4996281;28;97112;-55
2023/12/25 08:02:42;;;;;;;3.30;0.70;;;;;;;9.85;66.92;100035.06;4996300;28;98015;-55
2023/12/25 08:05:07;;;;;;;1.90;0.70;;;;;;;9.84;67.08;100028.03;4999716;28;96838;-55
2023/12/25 08:07:33;;;;;;;1.10;0.60;;;;;;;9.83;66.97;100040.34;4996395;28;98578;-55
2023/12/25 08:09:58;;;;;;;5.80;1.20;;;;;;;9.81;67.00;100048.44;4999242;28;97227;-56
2023/12/25 08:12:23;;;;;;;5.00;1.10;;;;;;;9.81;67.09;100040.16;4997067;28;97086;-55
2023/12/25 08:14:49;;;;;;;2.70;0.60;;;;;;;9.86;67.03;100042.09;4995944;28;97137;-55
2023/12/25 08:17:15;;;;;;;2.77;1.10;;;;;;;9.88;66.95;100060.88;4996596;28;97574;-55
2023/12/25 08:19:40;;;;;;;4.10;1.70;;;;;;;10.07;66.42;100064.34;4996079;28;97383;-55
2023/12/25 08:22:05;;;;;;;5.17;1.20;;;;;;;9.96;66.86;100059.75;4997008;28;99935;-55
2023/12/25 08:24:31;;;;;;;2.67;1.57;;;;;;;9.94;66.85;100061.53;4997346;28;98436;-55
2023/12/25 08:26:56;;;;;;;3.73;0.60;;;;;;;9.91;66.82;100062.59;4995782;28;97643;-55
2023/12/25 08:29:21;;;;;;;2.20;0.97;;;;;;;9.91;66.86;100068.13;4997131;28;97157;-55
2023/12/25 08:31:47;;;;;;;4.63;1.10;;;;;;;9.89;66.87;100067.88;4996764;28;97739;-55
2023/12/25 08:34:12;;;;;;;2.30;1.30;;;;;;;9.90;66.87;100077.69;4996055;28;96814;-55
2023/12/25 08:36:37;;;;;;;5.40;1.50;;;;;;;9.92;66.81;100070.38;4992301;28;108671;-55
2023/12/25 08:39:04;;;;;;;1.53;0.60;;;;;;;9.94;66.72;100081.63;4994785;28;97201;-55
2023/12/25 08:41:30;;;;;;;3.13;0.57;;;;;;;9.99;66.58;100080.06;4996805;28;96688;-55
2023/12/25 08:43:55;;;;;;;5.80;0.90;;;;;;;10.00;66.74;100082.28;4995912;28;96948;-55
2023/12/25 08:46:20;;;;;;;1.80;0.83;;;;;;;10.06;66.57;100087.00;4995323;28;97479;-55
2023/12/25 08:48:47;;;;;;;2.90;0.77;;;;;;;10.06;66.54;100084.22;4986427;28;97714;-56
2023/12/25 08:51:12;;;;;;;9.50;1.17;;;;;;;10.08;66.35;100076.16;4992042;28;96705;-56
2023/12/25 08:53:38;;;;;;;1.70;0.70;;;;;;;10.11;66.61;100086.16;4993239;28;97152;-55
2023/12/25 08:56:03;;;;;;;1.90;0.77;;;;;;;10.14;66.32;100090.63;4992390;28;108470;-56
2023/12/25 08:58:29;;;;;;;3.27;0.93;;;;;;;10.18;66.36;100094.56;4994355;28;98409;-56
2023/12/25 09:00:54;;;;;;;2.10;0.93;;;;;;;10.20;66.35;100105.09;4993102;28;96690;-56
2023/12/25 09:03:19;;;;;;;3.70;1.07;;;;;;;10.17;66.33;100109.69;4993168;28;98315;-55
2023/12/25 09:05:45;;;;;;;3.07;0.60;;;;;;;10.16;66.30;100115.72;4992054;28;110072;-55
2023/12/25 09:08:11;;;;;;;1.83;0.63;;;;;;;10.21;66.17;100115.66;4994442;28;100371;-56
2023/12/25 09:10:37;;;;;;;1.90;0.90;;;;;;;10.26;66.50;100122.34;4995178;28;96849;-55
2023/12/25 09:13:03;;;;;;;1.87;0.87;;;;;;;10.30;66.25;100125.56;4996839;28;97071;-56
2023/12/25 09:15:28;;;;;;;2.00;1.10;;;;;;;10.32;66.14;100128.53;4994389;28;96827;-56
2023/12/25 09:17:53;;;;;;;4.70;1.00;;;;;;;10.35;66.16;100133.00;4993668;28;97145;-56
2023/12/25 09:20:19;;;;;;;1.27;0.70;;;;;;;10.36;66.08;100134.50;4992260;28;97046;-55
2023/12/25 09:22:44;;;;;;;2.30;0.80;;;;;;;10.36;65.94;100134.50;4994030;28;97418;-56
2023/12/25 09:25:10;;;;;;;6.47;1.07;;;;;;;10.42;66.01;100138.66;4994348;28;97798;-56
2023/12/25 09:27:35;;;;;;;2.60;1.50;;;;;;;10.44;65.91;100138.13;4994189;28;96922;-55
2023/12/25 09:30:01;;;;;;;5.30;1.40;;;;;;;10.46;65.87;100138.34;4995108;28;97168;-56
2023/12/25 09:32:27;;;;;;;4.80;1.03;;;;;;;10.50;65.84;100127.75;4993793;28;100221;-56
2023/12/25 09:34:53;;;;;;;2.10;1.10;;;;;;;10.54;65.89;100150.31;4993676;28;97824;-56
2023/12/25 09:37:18;;;;;;;2.43;1.40;;;;;;;10.59;65.76;100150.19;4993122;28;97147;-55
2023/12/25 09:39:43;;;;;;;8.80;1.47;;;;;;;10.67;65.76;100161.41;4984682;28;96982;-55
2023/12/25 09:42:10;;;;;;;4.37;1.40;;;;;;;10.67;65.76;100158.63;4994770;28;97023;-56
2023/12/25 09:44:37;;;;;;;3.97;1.10;;;;;;;10.70;65.44;100152.78;4993983;28;97329;-56
2023/12/25 09:47:06;;;;;;;2.57;1.10;;;;;;;10.73;65.53;100145.44;4993513;28;97065;-55
2023/12/25 09:49:35;;;;;;;1.10;0.80;;;;;;;10.78;65.23;100144.59;4993483;28;97873;-56
2023/12/25 09:52:01;;;;;;;2.80;0.80;;;;;;;10.77;65.44;100151.41;4992249;28;96779;-56
2023/12/25 09:54:27;;;;;;;6.67;0.80;;;;;;;10.76;65.52;100158.94;4993251;28;97949;-56
2023/12/25 09:56:55;;;;;;;6.90;1.40;;;;;;;10.81;65.47;100165.69;4993026;28;97167;-55
2023/12/25 09:59:20;;;;;;;5.50;1.10;;;;;;;10.84;65.43;100161.88;4994358;28;96955;-55
2023/12/25 10:01:46;;;;;;;3.17;1.10;;;;;;;10.87;65.30;100163.59;4992388;28;97156;-55
2023/12/25 10:04:12;;;;;;;3.97;1.37;;;;;;;10.83;65.15;100163.16;4992109;28;96672;-55
2023/12/25 10:06:37;;;;;;;3.53;1.03;;;;;;;10.83;65.23;100163.16;4983645;28;97552;-56
2023/12/25 10:09:03;;;;;;;2.20;1.57;;;;;;;10.82;65.19;100158.91;4991728;28;97191;-56
2023/12/25 10:11:29;;;;;;;8.50;1.43;;;;;;;10.81;65.14;100159.44;4990060;28;96897;-55
2023/12/25 10:13:54;;;;;;;1.93;1.70;;;;;;;10.78;65.24;100166.75;4991987;28;99932;-55
2023/12/25 10:16:20;;;;;;;3.03;2.10;;;;;;;10.75;65.25;100165.78;4993804;28;104919;-56
2023/12/25 10:18:47;;;;;;;2.60;1.70;;;;;;;10.74;65.21;100169.81;4994082;28;96903;-56
2023/12/25 10:21:12;;;;;;;4.20;1.43;;;;;;;10.74;65.13;100169.09;4990720;28;97254;-56
2023/12/25 10:23:38;;;;;;;3.23;1.50;;;;;;;10.73;65.21;100167.56;4983309;28;99084;-57
2023/12/25 10:26:04;;;;;;;3.40;1.67;;;;;;;10.73;65.39;100170.34;4992393;28;97767;-56
2023/12/25 10:28:32;;;;;;;3.13;1.40;;;;;;;10.73;65.14;100171.09;4987598;28;97310;-56
2023/12/25 10:30:58;;;;;;;2.10;0.90;;;;;;;10.74;64.99;100169.81;4992092;28;97034;-56
2023/12/25 10:33:24;;;;;;;5.63;1.77;;;;;;;10.73;65.05;100162.03;4993931;28;97048;-56
2023/12/25 10:36:09;;;;;;;3.53;0.90;;;;;;;10.73;64.61;100167.56;4994354;28;97102;-56
2023/12/25 10:38:39;;;;;;;5.83;1.33;;;;;;;10.72;64.97;100166.06;4995014;28;97410;-56
2023/12/25 10:41:18;;;;;;;3.43;0.90;;;;;;;10.75;64.50;100170.56;4992841;28;96882;-55
2023/12/25 10:43:48;;;;;;;5.70;0.97;;;;;;;10.71;65.00;100172.91;4996334;28;96986;-55
2023/12/25 10:46:15;;;;;;;4.17;1.13;;;;;;;10.69;64.91;100176.19;4993862;28;97270;-55
2023/12/25 10:48:41;;;;;;;1.40;0.67;;;;;;;10.70;64.87;100185.22;4997789;28;96723;-55
2023/12/25 10:51:07;;;;;;;1.73;0.80;;;;;;;10.70;64.85;100185.22;5000583;28;96731;-55
2023/12/25 10:53:34;;;;;;;3.00;0.97;;;;;;;10.70;64.85;100169.38;4994918;28;97635;-56
2023/12/25 10:56:02;;;;;;;3.60;1.10;;;;;;;10.73;64.64;100167.56;4995216;28;97605;-55
2023/12/25 10:58:29;;;;;;;4.70;1.20;;;;;;;10.71;64.66;100173.66;4993927;28;100074;-56
2023/12/25 11:00:56;;;;;;;2.23;1.27;;;;;;;10.71;64.48;100165.34;4994728;28;97092;-56
2023/12/25 11:03:22;;;;;;;2.43;0.80;;;;;;;10.68;64.60;100166.41;4992958;28;97819;-56
2023/12/25 11:05:48;;;;;;;3.93;0.80;;;;;;;10.70;64.61;100171.38;4990825;28;99288;-55
2023/12/25 11:08:16;;;;;;;1.30;0.70;;;;;;;10.74;64.67;100171.84;4990395;28;96999;-56
2023/12/25 11:10:41;;;;;;;3.73;1.17;;;;;;;10.74;64.54;100175.34;4994177;28;97090;-55
2023/12/25 11:13:07;;;;;;;1.80;0.90;;;;;;;10.78;64.51;100172.28;4995890;28;96679;-55
2023/12/25 11:15:33;;;;;;;2.03;1.77;;;;;;;10.81;64.42;100174.00;4992210;28;97249;-56
2023/12/25 11:17:59;;;;;;;6.73;1.57;;;;;;;10.85;64.28;100168.88;4997182;28;96742;-56
2023/12/25 11:20:24;;;;;;;3.60;1.50;;;;;;;10.86;64.26;100173.16;4995987;28;96935;-55
2023/12/25 11:22:53;;;;;;;5.53;3.30;;;;;;;10.87;64.07;100171.16;4997962;28;97977;-55
2023/12/25 11:25:20;;;;;;;4.50;2.30;;;;;;;10.86;64.03;100164.88;4998130;28;97384;-56